Micro, North Carolina
Current Conditions -  °F | °C
As of 4:35 AM on Monday 24 Nov 2014 (Local Time) from KJNX Reporting Station
Scattered Clouds Scattered Clouds  
Wind Chill: 64°   Ceiling: Unl
Heat Index: 64°   Visibility: 10mi
Dew Point: 63°   Wind: 6mph
Humidity: 94%   Direction: 210°SSW
Pressure: 29.79"   Gusts: NA
Location:  35.56°N, 78.2°W
Report Text: KJNX 240935Z AUTO 21005KT 10SM SCT020 18/17 A2979 RMK AO2 LTG DSNT SE
Loading
Personal Weather Stations






























Interactive Weather Map New forecast layout! Learn more

10-Day Weather Forecast

Advertisements
Track Severe Weather on mobile